X  Sluiten METAR luchtvaart weer gegevens      EHRD Rotterdam The Hague Airport
Temperatuur
20°C Temperatuur
11°C Dauwpunt
56% Vochtigheid



Wind
8 KM/U
5 MPH
2 M/S
4 KTS



10°
N
Huidig weer

Helder Helder
Luchtdruk 1018.96 (hPa) - 30.09 (inHg)
Zicht 6 (mijl) - 9.7 (km)
Vliegveld
Vliegveld code EHRD

Locatie : Rotterdam The Hague Airport
Afstand: 23 (km)

Metar:
EHRD 241825Z AUTO 01004KT 330V050 9999 NSC 20/11 Q1019 NOSIG

Tijd: 24-07-2024 20:25 CEST